Time;durP1;ratioP1;P1;durP2;ratioP2;P2;SDS_P1;SDS_P2;PMS_P1;PMS_P2;Temp;Humidity;BMP_temperature;BMP_pressure;BME280_temperature;BME280_humidity;BME280_pressure;Samples;Min_cycle;Max_cycle;Signal;HPM_P1;HPM_P2
2021/07/14 00:01:23;;;;;;;16.95;14.57;;;25.50;83.40;;;;;;5032388;28;20121;-67
2021/07/14 00:03:48;;;;;;;15.70;14.10;;;25.50;83.50;;;;;;5033778;28;20552;-67
2021/07/14 00:06:14;;;;;;;15.43;13.00;;;25.50;83.70;;;;;;5033866;28;20022;-67
2021/07/14 00:08:40;;;;;;;14.57;13.07;;;25.50;84.00;;;;;;5033999;28;20104;-67
2021/07/14 00:11:05;;;;;;;16.70;13.80;;;25.50;84.20;;;;;;5033990;28;20025;-67
2021/07/14 00:13:34;;;;;;;16.15;13.77;;;25.50;84.40;;;;;;5034093;28;20040;-67
2021/07/14 00:24:13;;;;;;;20.38;17.33;;;25.50;85.10;;;;;;5033760;28;20147;-67
2021/07/14 00:26:39;;;;;;;23.48;18.98;;;25.40;85.20;;;;;;5033467;28;20049;-67
2021/07/14 00:29:11;;;;;;;23.25;18.40;;;25.50;85.50;;;;;;5033792;28;20028;-67
2021/07/14 00:31:37;;;;;;;23.27;18.92;;;25.50;85.80;;;;;;5033431;28;20049;-67
2021/07/14 00:34:03;;;;;;;20.25;18.15;;;25.40;85.70;;;;;;5033650;28;20100;-67
2021/07/14 00:36:28;;;;;;;23.48;19.00;;;25.40;85.80;;;;;;5032826;28;20068;-67
2021/07/14 00:38:54;;;;;;;23.80;19.42;;;25.40;86.00;;;;;;5033637;28;20501;-67
2021/07/14 00:41:20;;;;;;;22.73;19.77;;;25.40;86.30;;;;;;5033538;28;20408;-67
2021/07/14 00:43:46;;;;;;;24.27;19.58;;;25.40;86.70;;;;;;5033291;28;20014;-67
2021/07/14 00:46:24;;;;;;;23.13;19.52;;;25.40;86.90;;;;;;5033097;28;20493;-67
2021/07/14 00:48:51;;;;;;;21.70;18.85;;;25.40;86.90;;;;;;5032848;28;20033;-67
2021/07/14 00:51:17;;;;;;;23.73;20.30;;;25.40;87.30;;;;;;5033376;28;20029;-67
2021/07/14 00:53:44;;;;;;;23.20;19.52;;;25.40;87.40;;;;;;5033345;28;20111;-67
2021/07/14 00:56:09;;;;;;;24.48;19.83;;;25.40;87.50;;;;;;5032539;28;20359;-67
2021/07/14 00:58:35;;;;;;;22.27;19.52;;;25.50;87.60;;;;;;5030300;28;20037;-68
2021/07/14 01:01:03;;;;;;;23.25;19.48;;;25.40;87.60;;;;;;5032850;28;20037;-67
2021/07/14 01:03:31;;;;;;;23.10;19.10;;;25.40;87.60;;;;;;5033164;28;20028;-67
2021/07/14 01:06:01;;;;;;;23.73;20.38;;;25.40;87.60;;;;;;5032098;28;20021;-67
2021/07/14 01:08:42;;;;;;;26.35;20.90;;;25.40;87.60;;;;;;5033021;28;20061;-67
2021/07/14 01:11:12;;;;;;;25.08;19.75;;;25.40;87.30;;;;;;5033145;28;20045;-67
2021/07/14 01:14:05;;;;;;;24.40;20.13;;;25.40;87.60;;;;;;5031855;28;20025;-67
2021/07/14 01:16:45;;;;;;;24.80;19.63;;;25.40;87.60;;;;;;5032750;28;20159;-67
2021/07/14 01:19:14;;;;;;;23.02;19.02;;;25.40;87.40;;;;;;5032438;28;20049;-67
2021/07/14 01:21:43;;;;;;;21.13;18.85;;;25.40;87.80;;;;;;5032782;28;20162;-67
2021/07/14 01:24:15;;;;;;;23.42;18.88;;;25.40;88.00;;;;;;5032886;28;20100;-67
2021/07/14 01:26:56;;;;;;;24.02;17.92;;;25.30;87.80;;;;;;5031124;28;20034;-67
2021/07/14 01:29:23;;;;;;;22.00;18.40;;;25.30;88.10;;;;;;5033158;28;20485;-67
2021/07/14 01:31:52;;;;;;;21.80;17.65;;;25.30;87.70;;;;;;5021334;28;20020;-68
2021/07/14 01:34:21;;;;;;;21.70;17.98;;;25.30;87.80;;;;;;5032556;28;20116;-67
2021/07/14 01:36:50;;;;;;;22.52;18.30;;;25.30;88.00;;;;;;5032493;28;20448;-67
2021/07/14 01:39:16;;;;;;;21.45;18.70;;;25.30;87.90;;;;;;5033049;28;20474;-67
2021/07/14 01:41:46;;;;;;;22.70;17.75;;;25.30;88.10;;;;;;5032494;28;20029;-67
2021/07/14 01:44:12;;;;;;;22.92;18.83;;;25.30;88.20;;;;;;5032189;28;20021;-67
2021/07/14 01:46:40;;;;;;;21.75;18.48;;;25.30;88.10;;;;;;5032406;28;20363;-67
2021/07/14 01:49:12;;;;;;;20.65;18.02;;;25.30;88.20;;;;;;5028749;28;20045;-67
2021/07/14 01:51:44;;;;;;;22.38;18.23;;;25.30;88.20;;;;;;5023907;28;20063;-67
2021/07/14 01:54:13;;;;;;;22.27;17.77;;;25.30;88.20;;;;;;5032610;28;20547;-67
2021/07/14 01:56:40;;;;;;;20.42;18.05;;;25.30;88.50;;;;;;5031133;28;20048;-67
2021/07/14 01:59:08;;;;;;;21.48;18.10;;;25.30;88.50;;;;;;5032691;28;20037;-67
2021/07/14 02:01:38;;;;;;;19.73;17.63;;;25.30;88.60;;;;;;5032574;28;20026;-67
2021/07/14 02:06:50;;;;;;;14.30;12.25;;;25.30;88.20;;;;;;5026266;28;20419;-67
2021/07/14 02:09:16;;;;;;;12.40;10.88;;;25.30;87.60;;;;;;5032044;28;20022;-67
2021/07/14 02:11:46;;;;;;;11.15;9.85;;;25.30;87.20;;;;;;5032449;28;20049;-67
2021/07/14 02:14:17;;;;;;;11.02;9.90;;;25.30;86.50;;;;;;5032476;28;20048;-67
2021/07/14 02:16:45;;;;;;;11.30;9.68;;;25.30;85.80;;;;;;5025061;28;20034;-67
2021/07/14 02:19:14;;;;;;;10.55;9.45;;;25.40;85.60;;;;;;5012401;28;20050;-67
2021/07/14 02:21:40;;;;;;;10.80;9.70;;;25.40;85.00;;;;;;5012587;28;20036;-67
2021/07/14 02:24:09;;;;;;;10.23;9.15;;;25.40;84.80;;;;;;5012597;28;20029;-67
2021/07/14 02:26:35;;;;;;;10.90;9.18;;;25.40;84.40;;;;;;5031220;28;20112;-67
2021/07/14 02:29:00;;;;;;;9.93;8.93;;;25.40;84.10;;;;;;5031760;28;20029;-67
2021/07/14 02:31:26;;;;;;;9.98;9.02;;;25.40;83.90;;;;;;5032147;28;20025;-67
2021/07/14 02:33:52;;;;;;;9.43;8.43;;;25.50;83.60;;;;;;5032040;28;20383;-67
2021/07/14 02:36:19;;;;;;;10.20;9.15;;;25.50;83.40;;;;;;5032154;28;20033;-67
2021/07/14 02:38:50;;;;;;;10.52;9.52;;;25.50;83.30;;;;;;5032046;28;20037;-67
2021/07/14 02:41:26;;;;;;;9.73;8.73;;;25.50;83.40;;;;;;5031993;28;20018;-67
2021/07/14 02:43:58;;;;;;;9.73;8.63;;;25.60;83.10;;;;;;5012418;28;20061;-67
2021/07/14 02:46:27;;;;;;;10.18;9.20;;;25.70;83.20;;;;;;5012516;28;20467;-68
2021/07/14 02:48:55;;;;;;;9.98;8.98;;;25.70;83.90;;;;;;5014226;28;20030;-68
2021/07/14 02:51:23;;;;;;;9.55;8.40;;;25.70;83.10;;;;;;5031915;28;20104;-68
2021/07/14 02:53:52;;;;;;;9.55;8.55;;;25.70;82.90;;;;;;5031969;28;20034;-68
2021/07/14 02:56:21;;;;;;;11.05;9.95;;;25.80;82.90;;;;;;5033940;28;20062;-68
2021/07/14 02:58:54;;;;;;;9.85;8.85;;;25.80;82.90;;;;;;5035535;28;20473;-68
2021/07/14 03:01:21;;;;;;;10.65;9.65;;;25.90;82.90;;;;;;5033557;28;20457;-68
2021/07/14 03:03:52;;;;;;;9.35;8.35;;;25.90;82.90;;;;;;5033831;28;20068;-68
2021/07/14 03:06:19;;;;;;;9.75;8.57;;;26.00;82.90;;;;;;5033650;28;20030;-68
2021/07/14 03:08:48;;;;;;;9.65;8.40;;;26.00;82.80;;;;;;5034112;28;20040;-68
2021/07/14 03:11:16;;;;;;;9.35;8.45;;;26.10;82.90;;;;;;5034966;28;20075;-68
2021/07/14 03:13:44;;;;;;;11.30;9.07;;;26.10;82.80;;;;;;5034903;28;20029;-68
2021/07/14 03:16:10;;;;;;;9.88;8.68;;;26.20;82.80;;;;;;5034895;28;20029;-68
2021/07/14 03:18:38;;;;;;;10.13;9.10;;;26.20;83.00;;;;;;5034843;28;20128;-68
2021/07/14 03:21:05;;;;;;;9.02;8.13;;;26.30;82.70;;;;;;5033590;28;20026;-68
2021/07/14 03:23:32;;;;;;;11.02;9.30;;;26.40;82.60;;;;;;5034925;28;20052;-68
2021/07/14 03:26:00;;;;;;;9.85;8.85;;;26.40;82.70;;;;;;5045002;28;20029;-68
2021/07/14 03:28:30;;;;;;;9.98;8.68;;;26.50;82.70;;;;;;5051755;28;20017;-68
2021/07/14 03:31:02;;;;;;;9.82;8.63;;;26.60;82.70;;;;;;5032733;28;20025;-68
2021/07/14 03:33:33;;;;;;;11.35;10.05;;;26.70;83.20;;;;;;5031578;28;20029;-68
2021/07/14 03:36:00;;;;;;;9.65;8.65;;;26.90;83.70;;;;;;5032326;28;20025;-68
2021/07/14 03:38:28;;;;;;;10.13;9.13;;;27.10;83.70;;;;;;5033798;28;20044;-68
2021/07/14 03:40:55;;;;;;;9.38;8.48;;;27.30;83.60;;;;;;5035219;28;20037;-68
2021/07/14 03:43:22;;;;;;;9.65;8.65;;;27.60;82.90;;;;;;5033990;28;20017;-68
2021/07/14 03:45:48;;;;;;;9.32;8.38;;;27.90;82.50;;;;;;5037776;28;20033;-68
2021/07/14 03:48:19;;;;;;;12.13;9.77;;;28.30;81.80;;;;;;5036060;28;20033;-68
2021/07/14 03:50:49;;;;;;;12.02;10.82;;;28.80;81.00;;;;;;5034920;28;20038;-68
2021/07/14 03:53:16;;;;;;;11.32;10.25;;;29.30;80.10;;;;;;5036371;28;20033;-68
2021/07/14 03:55:42;;;;;;;11.45;10.40;;;30.00;78.60;;;;;;5034706;28;20340;-68
2021/07/14 03:58:09;;;;;;;12.70;11.40;;;30.70;76.70;;;;;;5035529;28;20112;-68
2021/07/14 04:00:35;;;;;;;12.25;10.57;;;31.40;74.60;;;;;;5034935;28;20438;-68
2021/07/14 04:03:02;;;;;;;11.85;10.65;;;32.10;72.50;;;;;;5033581;28;20029;-68
2021/07/14 04:05:28;;;;;;;11.43;10.32;;;32.90;70.40;;;;;;5034384;28;20455;-68
2021/07/14 04:07:57;;;;;;;11.70;10.18;;;33.60;68.60;;;;;;5033736;28;20515;-68
2021/07/14 04:10:23;;;;;;;11.85;10.65;;;34.20;66.80;;;;;;5034374;28;20036;-68
2021/07/14 04:12:49;;;;;;;11.30;10.18;;;34.70;65.30;;;;;;5033851;28;20021;-68
2021/07/14 04:15:15;;;;;;;11.30;10.05;;;35.30;63.60;;;;;;5034103;28;20033;-68
2021/07/14 04:17:41;;;;;;;11.25;10.07;;;35.80;62.40;;;;;;5033971;28;20075;-68
2021/07/14 04:20:07;;;;;;;11.73;9.75;;;36.30;61.00;;;;;;5034106;28;20026;-68
2021/07/14 04:22:33;;;;;;;10.50;9.45;;;36.80;60.00;;;;;;5033880;28;20105;-68
2021/07/14 04:24:59;;;;;;;10.95;9.95;;;37.20;59.10;;;;;;5033832;28;20049;-68
2021/07/14 04:27:26;;;;;;;10.40;9.40;;;37.70;58.00;;;;;;5033793;28;20067;-68
2021/07/14 04:29:52;;;;;;;10.43;9.32;;;38.10;57.10;;;;;;5033672;28;20034;-68
2021/07/14 04:32:17;;;;;;;9.60;8.60;;;38.50;56.10;;;;;;5033656;28;20025;-68
2021/07/14 04:34:43;;;;;;;10.07;8.45;;;38.90;55.50;;;;;;5033889;28;20385;-68
2021/07/14 04:37:09;;;;;;;9.40;8.50;;;39.20;54.70;;;;;;5033538;28;20014;-68
2021/07/14 04:39:35;;;;;;;10.68;9.68;;;39.50;54.10;;;;;;5033596;28;20044;-68
2021/07/14 04:42:00;;;;;;;12.20;11.18;;;39.80;53.60;;;;;;5033248;28;20458;-69
2021/07/14 04:44:38;;;;;;;10.70;9.73;;;40.00;53.00;;;;;;5033360;28;20025;-69
2021/07/14 04:47:04;;;;;;;8.90;8.05;;;40.30;52.50;;;;;;5031002;28;20155;-69
2021/07/14 04:49:30;;;;;;;8.95;8.05;;;40.50;52.00;;;;;;5030147;28;20036;-69
2021/07/14 04:51:56;;;;;;;8.60;7.90;;;40.70;51.50;;;;;;5036708;28;20377;-69
2021/07/14 04:54:22;;;;;;;8.75;7.95;;;41.00;51.00;;;;;;5031067;28;20040;-69
2021/07/14 04:56:49;;;;;;;9.38;8.57;;;41.20;50.50;;;;;;5027850;28;20033;-69
2021/07/14 04:59:16;;;;;;;8.93;8.13;;;41.50;50.20;;;;;;5029381;28;20022;-69
2021/07/14 05:01:42;;;;;;;8.20;7.50;;;41.60;49.60;;;;;;5030850;28;20064;-69
2021/07/14 05:04:08;;;;;;;9.25;7.93;;;41.80;49.40;;;;;;5031203;28;20053;-69
2021/07/14 05:06:33;;;;;;;8.80;7.93;;;42.00;49.10;;;;;;5026868;28;20654;-69
2021/07/14 05:08:59;;;;;;;9.15;8.25;;;42.10;48.80;;;;;;5025124;28;20017;-69
2021/07/14 05:11:25;;;;;;;7.82;7.07;;;42.30;48.50;;;;;;5027223;28;20034;-69
2021/07/14 05:13:50;;;;;;;8.52;7.72;;;42.40;48.20;;;;;;5028985;28;20033;-69
2021/07/14 05:16:16;;;;;;;8.60;7.80;;;42.50;48.10;;;;;;5024640;28;20773;-69
2021/07/14 05:18:42;;;;;;;8.70;7.80;;;42.60;47.80;;;;;;5023932;28;20049;-69
2021/07/14 05:21:07;;;;;;;9.70;7.85;;;42.70;47.40;;;;;;5026991;28;20025;-69
2021/07/14 05:23:33;;;;;;;8.50;7.72;;;42.80;47.30;;;;;;5027034;28;20026;-69
2021/07/14 05:25:59;;;;;;;8.00;7.20;;;42.80;46.90;;;;;;5027929;28;20485;-69
2021/07/14 05:28:25;;;;;;;8.35;7.53;;;42.70;46.70;;;;;;5026811;28;20094;-69
2021/07/14 05:30:51;;;;;;;9.63;8.75;;;42.50;46.60;;;;;;5024722;28;20033;-69
2021/07/14 05:33:18;;;;;;;8.98;8.18;;;42.00;46.60;;;;;;5028130;28;20517;-69
2021/07/14 05:35:43;;;;;;;8.38;7.57;;;41.30;47.20;;;;;;5030210;28;20052;-68
2021/07/14 05:38:09;;;;;;;7.93;7.10;;;40.50;48.00;;;;;;5023958;28;20053;-68
2021/07/14 05:40:35;;;;;;;9.88;8.98;;;39.70;48.90;;;;;;5021728;28;20084;-68
2021/07/14 05:43:00;;;;;;;9.00;8.20;;;38.90;50.00;;;;;;5034227;28;20385;-68
2021/07/14 05:45:26;;;;;;;8.00;7.20;;;38.20;51.10;;;;;;5013713;28;20481;-69
2021/07/14 05:47:52;;;;;;;9.40;8.38;;;37.50;51.70;;;;;;5017380;28;20116;-68
2021/07/14 05:50:18;;;;;;;8.98;8.18;;;36.90;52.60;;;;;;5010661;28;20044;-69
2021/07/14 05:52:44;;;;;;;10.10;9.10;;;36.40;53.60;;;;;;5018807;28;20607;-68
2021/07/14 05:55:11;;;;;;;8.75;7.95;;;35.90;54.60;;;;;;5015605;28;20096;-67
2021/07/14 05:57:39;;;;;;;8.93;8.02;;;35.40;55.20;;;;;;5014972;28;21321;-68
2021/07/14 06:00:09;;;;;;;9.45;8.45;;;35.10;56.00;;;;;;5009833;28;22438;-68
2021/07/14 06:02:35;;;;;;;9.27;8.38;;;34.70;56.60;;;;;;5010676;28;20038;-68
2021/07/14 06:05:01;;;;;;;9.30;8.50;;;34.50;57.10;;;;;;5012423;28;20064;-67
2021/07/14 06:07:27;;;;;;;9.00;8.13;;;34.20;57.60;;;;;;5009645;28;20112;-66
2021/07/14 06:09:52;;;;;;;9.13;8.23;;;34.00;58.20;;;;;;5010978;28;20159;-66
2021/07/14 06:12:18;;;;;;;8.75;7.93;;;33.80;58.40;;;;;;5007893;28;20474;-66
2021/07/14 06:14:45;;;;;;;9.68;8.48;;;33.60;58.90;;;;;;5012630;28;20543;-66
2021/07/14 06:17:11;;;;;;;9.00;8.07;;;33.40;59.00;;;;;;5012707;28;20033;-66
2021/07/14 06:19:36;;;;;;;8.52;7.35;;;33.20;59.00;;;;;;5008269;28;21265;-65
2021/07/14 06:22:03;;;;;;;8.77;7.97;;;33.00;59.30;;;;;;5007178;28;20041;-65
2021/07/14 06:24:28;;;;;;;9.15;8.25;;;33.00;59.80;;;;;;5009673;28;20040;-67
2021/07/14 06:26:55;;;;;;;8.57;7.68;;;32.80;60.00;;;;;;5013812;28;20547;-66
2021/07/14 06:29:22;;;;;;;10.98;7.85;;;32.70;60.40;;;;;;5015285;28;20402;-65
2021/07/14 06:31:49;;;;;;;9.38;8.48;;;32.60;60.60;;;;;;5016286;28;20029;-67
2021/07/14 06:34:15;;;;;;;8.13;7.32;;;32.50;60.70;;;;;;5010532;28;20061;-65
2021/07/14 06:36:40;;;;;;;8.48;7.68;;;32.50;60.90;;;;;;5015723;28;20804;-65
2021/07/14 06:39:07;;;;;;;8.43;7.63;;;32.40;61.20;;;;;;5017426;28;20033;-66
2021/07/14 06:41:32;;;;;;;8.10;7.30;;;32.30;61.30;;;;;;5016062;28;20033;-65
2021/07/14 06:44:01;;;;;;;9.45;7.72;;;32.20;61.60;;;;;;5006100;28;20507;-65
2021/07/14 06:46:27;;;;;;;8.82;7.55;;;32.10;61.60;;;;;;5015694;28;20036;-65
2021/07/14 06:48:54;;;;;;;8.27;7.45;;;32.10;61.80;;;;;;5014006;28;21868;-67
2021/07/14 06:51:20;;;;;;;8.98;7.78;;;32.00;62.00;;;;;;5019980;28;20064;-65
2021/07/14 06:53:45;;;;;;;8.77;7.97;;;32.00;62.10;;;;;;5022769;28;20138;-65
2021/07/14 06:56:11;;;;;;;8.32;7.50;;;31.90;62.30;;;;;;5013562;28;20517;-65
2021/07/14 06:58:39;;;;;;;8.02;7.28;;;31.90;62.60;;;;;;5016456;28;20037;-67
2021/07/14 07:01:05;;;;;;;8.70;7.80;;;31.90;62.90;;;;;;5016926;28;20246;-66
2021/07/14 07:03:31;;;;;;;8.00;7.30;;;31.80;62.60;;;;;;5017170;28;20029;-66
2021/07/14 07:05:57;;;;;;;8.57;7.78;;;31.80;62.80;;;;;;5009158;28;20036;-66
2021/07/14 07:08:23;;;;;;;8.23;7.43;;;31.70;62.90;;;;;;5014486;28;20025;-66
2021/07/14 07:10:49;;;;;;;8.20;7.40;;;31.70;63.30;;;;;;5016785;28;20030;-67
2021/07/14 07:13:18;;;;;;;8.52;7.72;;;31.70;63.30;;;;;;5010511;28;20068;-67
2021/07/14 07:15:45;;;;;;;8.00;7.18;;;31.70;63.80;;;;;;5021172;28;20091;-67
2021/07/14 07:18:10;;;;;;;8.27;7.47;;;31.60;64.00;;;;;;5009520;28;20045;-68
2021/07/14 07:20:37;;;;;;;9.05;7.38;;;31.60;64.00;;;;;;5010610;28;20091;-67
2021/07/14 07:23:03;;;;;;;8.13;7.32;;;31.60;63.50;;;;;;5016416;28;20044;-67
2021/07/14 07:25:29;;;;;;;7.82;7.13;;;31.60;63.30;;;;;;5011829;28;20029;-66
2021/07/14 07:27:58;;;;;;;9.15;8.25;;;31.60;63.20;;;;;;5016980;28;20029;-67
2021/07/14 07:30:25;;;;;;;7.75;6.95;;;31.50;63.20;;;;;;5020762;28;20040;-67
2021/07/14 07:32:51;;;;;;;8.35;6.70;;;31.50;62.70;;;;;;5014457;28;20038;-67
2021/07/14 07:35:17;;;;;;;7.50;6.65;;;31.40;62.60;;;;;;5013909;28;20048;-67
2021/07/14 07:37:43;;;;;;;8.10;7.30;;;31.40;62.20;;;;;;5015531;28;20033;-66
2021/07/14 07:40:10;;;;;;;7.70;6.97;;;31.40;62.70;;;;;;5016838;28;20030;-66
2021/07/14 07:42:36;;;;;;;7.40;6.68;;;31.40;62.90;;;;;;5011909;28;20034;-65
2021/07/14 07:45:02;;;;;;;6.90;6.30;;;31.40;63.40;;;;;;5007949;28;20086;-66
2021/07/14 07:47:28;;;;;;;7.15;6.55;;;31.30;63.30;;;;;;5013116;28;20033;-66
2021/07/14 07:49:54;;;;;;;7.68;6.90;;;31.40;63.30;;;;;;5013387;28;20091;-65
2021/07/14 07:52:21;;;;;;;9.75;6.78;;;31.30;63.00;;;;;;5016710;28;20029;-67
2021/07/14 07:54:48;;;;;;;7.32;6.63;;;31.30;62.60;;;;;;5014525;28;20029;-66
2021/07/14 07:57:14;;;;;;;6.90;6.22;;;31.30;61.90;;;;;;5013812;28;20516;-65
2021/07/14 07:59:39;;;;;;;8.23;6.60;;;31.30;61.60;;;;;;5015578;28;20035;-66
2021/07/14 08:02:06;;;;;;;7.63;6.90;;;31.30;61.90;;;;;;5017195;28;20030;-65
2021/07/14 08:04:33;;;;;;;7.57;6.88;;;31.30;61.60;;;;;;5013237;28;20034;-65
2021/07/14 08:06:59;;;;;;;8.63;6.85;;;31.30;61.60;;;;;;5014688;28;20163;-65
2021/07/14 08:09:25;;;;;;;6.90;6.20;;;31.30;62.00;;;;;;5015974;28;20036;-65
2021/07/14 08:11:51;;;;;;;8.05;7.25;;;31.30;62.50;;;;;;5012639;28;20080;-65
2021/07/14 08:14:17;;;;;;;7.60;6.90;;;31.30;62.40;;;;;;5013271;28;21656;-65
2021/07/14 08:16:45;;;;;;;7.50;6.80;;;31.20;62.50;;;;;;5011454;28;20133;-65
2021/07/14 08:19:11;;;;;;;7.13;6.43;;;31.20;62.50;;;;;;5016479;28;20666;-66
2021/07/14 08:21:37;;;;;;;8.52;7.30;;;31.20;62.20;;;;;;5011817;28;20065;-66
2021/07/14 08:24:03;;;;;;;7.28;6.57;;;31.20;62.20;;;;;;5016400;28;20111;-64
2021/07/14 08:26:29;;;;;;;7.75;6.95;;;31.20;62.00;;;;;;5013379;28;20072;-64
2021/07/14 08:28:54;;;;;;;8.02;7.22;;;31.20;62.00;;;;;;5013635;28;20108;-64
2021/07/14 08:31:22;;;;;;;7.70;7.00;;;31.20;62.20;;;;;;5010807;28;20132;-66
2021/07/14 08:33:48;;;;;;;7.80;7.00;;;31.20;62.40;;;;;;5013324;28;20088;-65
2021/07/14 08:36:14;;;;;;;6.97;6.35;;;31.10;62.20;;;;;;5015367;28;20038;-66
2021/07/14 08:38:40;;;;;;;7.25;6.50;;;31.10;61.90;;;;;;5014316;28;20397;-67
2021/07/14 08:41:14;;;;;;;7.68;6.93;;;31.10;61.50;;;;;;5014388;28;21660;-66
2021/07/14 08:43:41;;;;;;;6.97;6.28;;;31.10;60.70;;;;;;5008410;28;20719;-65
2021/07/14 08:46:07;;;;;;;7.65;6.95;;;31.00;60.50;;;;;;4998458;28;20666;-66
2021/07/14 08:48:33;;;;;;;7.30;6.60;;;31.00;60.80;;;;;;5007234;28;20017;-66
2021/07/14 08:51:00;;;;;;;7.20;6.50;;;31.00;60.50;;;;;;5009916;28;20117;-67
2021/07/14 08:53:27;;;;;;;7.25;6.18;;;31.00;60.40;;;;;;5009336;28;20490;-65
2021/07/14 08:55:55;;;;;;;7.07;6.38;;;31.00;60.60;;;;;;5009860;28;20409;-65
2021/07/14 08:58:22;;;;;;;7.38;6.68;;;31.00;60.60;;;;;;5010745;28;21175;-65
2021/07/14 09:00:50;;;;;;;7.20;6.50;;;31.00;60.30;;;;;;5010080;28;20036;-65
2021/07/14 09:03:15;;;;;;;7.00;6.30;;;31.00;60.40;;;;;;5012921;28;20560;-65
2021/07/14 09:05:41;;;;;;;7.20;6.20;;;30.90;60.20;;;;;;5017150;28;20033;-64
2021/07/14 09:08:07;;;;;;;6.82;6.15;;;30.90;60.40;;;;;;5015490;28;20045;-64
2021/07/14 09:10:34;;;;;;;8.13;6.63;;;30.90;60.20;;;;;;5012184;28;20112;-63
2021/07/14 09:13:00;;;;;;;7.38;6.68;;;30.90;60.00;;;;;;5008442;28;20041;-65
2021/07/14 09:15:28;;;;;;;7.85;6.10;;;30.80;59.80;;;;;;5008193;28;20034;-64
2021/07/14 09:18:00;;;;;;;9.57;7.25;;;30.80;59.70;;;;;;5013128;28;20037;-63
2021/07/14 09:20:31;;;;;;;10.68;7.70;;;30.80;60.10;;;;;;5006190;28;20037;-65
2021/07/14 09:23:18;;;;;;;7.28;6.32;;;30.80;60.20;;;;;;5010434;28;21005;-64
2021/07/14 09:25:59;;;;;;;7.25;6.50;;;30.80;59.60;;;;;;5013075;28;20417;-64
2021/07/14 09:28:33;;;;;;;10.32;7.20;;;30.70;59.20;;;;;;5011987;28;20112;-64
2021/07/14 09:31:02;;;;;;;6.85;6.25;;;30.70;59.20;;;;;;5008638;28;20044;-65
2021/07/14 09:33:27;;;;;;;7.03;6.32;;;30.70;59.20;;;;;;5007326;28;20026;-64
2021/07/14 09:35:57;;;;;;;8.82;7.50;;;30.60;59.30;;;;;;5005657;28;20544;-64
2021/07/14 09:38:26;;;;;;;7.67;6.93;;;30.70;59.50;;;;;;5010174;28;20148;-65
2021/07/14 09:41:06;;;;;;;8.20;6.25;;;30.60;60.00;;;;;;5009673;28;20294;-65
2021/07/14 09:43:38;;;;;;;7.90;7.10;;;30.60;59.70;;;;;;5010816;28;20022;-64
2021/07/14 09:46:11;;;;;;;8.05;7.35;;;30.60;60.30;;;;;;5009998;28;20087;-63
2021/07/14 09:48:41;;;;;;;7.82;7.13;;;30.60;60.50;;;;;;5009424;28;20508;-65
2021/07/14 09:51:11;;;;;;;8.57;6.93;;;30.60;60.50;;;;;;5012287;28;20071;-65
2021/07/14 09:53:42;;;;;;;8.38;7.57;;;30.60;60.40;;;;;;5010737;28;20029;-65
2021/07/14 09:56:15;;;;;;;8.52;7.65;;;30.50;61.00;;;;;;5015011;28;20058;-65
2021/07/14 09:58:42;;;;;;;8.32;7.53;;;30.50;61.30;;;;;;5009761;28;20030;-65
2021/07/14 10:01:16;;;;;;;9.30;7.82;;;30.50;61.30;;;;;;5004371;28;20120;-66
2021/07/14 10:03:50;;;;;;;8.38;7.57;;;30.50;61.30;;;;;;4999396;28;20029;-65
2021/07/14 10:06:17;;;;;;;8.70;7.57;;;30.50;62.00;;;;;;5007078;28;20506;-66
2021/07/14 10:08:47;;;;;;;9.18;7.97;;;30.40;62.10;;;;;;5006832;28;20032;-65
2021/07/14 10:11:23;;;;;;;8.70;7.93;;;30.40;62.30;;;;;;5016313;28;20599;-64
2021/07/14 10:14:06;;;;;;;8.52;7.72;;;30.40;62.70;;;;;;5013950;28;20037;-64
2021/07/14 10:16:33;;;;;;;9.07;8.05;;;30.40;62.90;;;;;;5011035;28;20840;-64
2021/07/14 10:18:58;;;;;;;8.50;7.70;;;30.40;63.20;;;;;;5011658;28;20099;-64
2021/07/14 10:21:24;;;;;;;8.55;7.68;;;30.40;63.10;;;;;;5016644;28;20029;-64
2021/07/14 10:23:50;;;;;;;8.48;7.68;;;30.30;63.10;;;;;;5009036;28;20026;-63
2021/07/14 10:26:16;;;;;;;8.88;8.00;;;30.30;63.20;;;;;;5008404;28;20080;-63
2021/07/14 10:28:44;;;;;;;8.30;7.50;;;30.30;63.40;;;;;;5010157;28;20038;-65
2021/07/14 10:31:11;;;;;;;8.20;7.40;;;30.30;63.50;;;;;;5011405;28;20402;-64
2021/07/14 10:33:38;;;;;;;7.90;7.10;;;30.30;63.40;;;;;;5006521;28;20486;-64
2021/07/14 10:36:07;;;;;;;9.05;7.00;;;30.20;63.20;;;;;;5014987;28;20087;-64
2021/07/14 10:38:34;;;;;;;8.80;6.88;;;30.20;62.80;;;;;;5018434;28;20165;-64
2021/07/14 10:41:01;;;;;;;9.48;7.38;;;30.20;62.80;;;;;;5021785;28;20085;-64
2021/07/14 10:43:31;;;;;;;11.63;7.40;;;30.20;63.50;;;;;;5021603;28;20104;-65
2021/07/14 10:45:56;;;;;;;9.20;8.30;;;30.20;63.20;;;;;;5013206;28;20028;-65
2021/07/14 10:48:24;;;;;;;7.68;6.97;;;30.10;63.90;;;;;;5018843;28;20038;-65
2021/07/14 10:50:52;;;;;;;7.15;6.45;;;30.20;62.90;;;;;;5023615;28;20025;-65
2021/07/14 10:53:19;;;;;;;7.63;6.82;;;30.10;62.70;;;;;;5015192;28;20119;-65
2021/07/14 10:55:50;;;;;;;7.18;6.53;;;30.10;62.90;;;;;;5007034;28;20057;-64
2021/07/14 10:58:18;;;;;;;9.30;6.63;;;30.10;62.90;;;;;;4993909;28;20979;-65
2021/07/14 11:00:46;;;;;;;7.68;6.40;;;30.10;63.30;;;;;;4993511;28;20525;-66
2021/07/14 11:03:36;;;;;;;7.65;5.55;;;30.10;63.00;;;;;;5002986;28;20022;-63
2021/07/14 11:06:03;;;;;;;6.63;5.07;;;30.10;62.60;;;;;;5010582;28;20040;-62
2021/07/14 11:08:50;;;;;;;6.50;5.30;;;30.10;61.70;;;;;;5010484;28;20064;-63
2021/07/14 11:11:18;;;;;;;7.32;4.85;;;30.10;61.10;;;;;;5011363;28;20021;-64
2021/07/14 11:13:49;;;;;;;5.22;4.18;;;30.10;60.60;;;;;;5012392;28;20083;-63
2021/07/14 11:16:25;;;;;;;5.32;4.13;;;30.10;59.70;;;;;;5014744;28;20461;-63
2021/07/14 11:19:12;;;;;;;5.03;3.85;;;30.00;59.00;;;;;;5012506;28;20195;-64
2021/07/14 11:21:56;;;;;;;4.22;3.83;;;30.00;58.00;;;;;;5019307;28;20488;-66
2021/07/14 11:24:38;;;;;;;7.47;4.00;;;30.00;58.40;;;;;;5012792;28;20388;-64
2021/07/14 11:27:23;;;;;;;4.25;3.83;;;30.00;57.50;;;;;;5013814;28;20063;-64
2021/07/14 11:29:50;;;;;;;6.25;4.05;;;30.00;57.70;;;;;;5013880;28;20083;-63
2021/07/14 11:32:38;;;;;;;4.70;3.65;;;30.00;57.30;;;;;;5021432;28;20049;-63
2021/07/14 11:35:32;;;;;;;4.43;3.65;;;30.00;57.10;;;;;;5022262;28;20065;-65
2021/07/14 11:38:02;;;;;;;5.45;3.85;;;30.00;57.20;;;;;;4982213;28;20611;-66
2021/07/14 11:40:27;;;;;;;4.90;3.60;;;30.00;56.80;;;;;;4999052;28;20041;-67
2021/07/14 11:43:14;;;;;;;4.53;3.35;;;30.00;56.50;;;;;;5005718;28;20029;-68
2021/07/14 11:45:41;;;;;;;4.05;3.50;;;30.00;56.20;;;;;;5008890;28;20103;-67
2021/07/14 11:48:26;;;;;;;4.15;2.88;;;30.00;55.60;;;;;;5012389;28;20204;-66
2021/07/14 11:50:54;;;;;;;3.85;3.28;;;30.00;55.00;;;;;;5006527;28;20049;-66
2021/07/14 11:53:30;;;;;;;5.28;3.00;;;30.00;54.90;;;;;;5014772;28;20025;-64
2021/07/14 11:56:08;;;;;;;4.03;2.97;;;30.00;54.70;;;;;;5015874;28;20064;-63
2021/07/14 11:58:43;;;;;;;4.07;2.97;;;30.00;54.60;;;;;;5011030;28;20065;-62
2021/07/14 12:01:18;;;;;;;3.53;3.05;;;30.00;54.30;;;;;;5016416;28;20033;-63
2021/07/14 12:03:59;;;;;;;3.10;2.80;;;30.00;53.90;;;;;;5010216;28;20067;-66
2021/07/14 12:06:43;;;;;;;3.10;2.53;;;30.00;53.90;;;;;;5008449;28;20037;-65
2021/07/14 12:09:17;;;;;;;4.50;2.63;;;30.00;54.30;;;;;;5007322;28;20021;-65
2021/07/14 12:11:43;;;;;;;2.60;2.40;;;30.00;54.10;;;;;;5018701;28;20060;-65
2021/07/14 12:14:11;;;;;;;4.70;2.72;;;30.00;53.80;;;;;;5015958;28;20542;-66
2021/07/14 12:16:37;;;;;;;3.05;2.72;;;30.00;53.40;;;;;;5009444;28;20040;-66
2021/07/14 12:19:03;;;;;;;2.67;2.17;;;29.90;53.30;;;;;;5005066;28;20050;-64
2021/07/14 12:21:32;;;;;;;2.63;2.40;;;29.90;52.90;;;;;;5004173;28;20029;-64
2021/07/14 12:23:58;;;;;;;2.65;2.10;;;30.00;52.40;;;;;;5004804;28;20107;-63
2021/07/14 12:26:24;;;;;;;3.05;2.42;;;30.00;53.00;;;;;;5007496;28;20473;-66
2021/07/14 12:28:50;;;;;;;3.10;2.15;;;30.00;53.80;;;;;;5006534;28;20048;-66
2021/07/14 12:31:15;;;;;;;5.15;2.53;;;30.00;53.00;;;;;;4997635;28;20477;-64
2021/07/14 12:33:42;;;;;;;3.95;2.55;;;30.00;52.80;;;;;;5003641;28;20056;-65
2021/07/14 12:36:08;;;;;;;5.75;2.70;;;30.00;52.70;;;;;;5007754;28;20040;-64
2021/07/14 12:38:34;;;;;;;4.15;2.85;;;30.00;52.00;;;;;;5001486;28;20721;-65
2021/07/14 12:40:59;;;;;;;2.67;2.42;;;30.00;52.10;;;;;;5007515;28;20416;-66
2021/07/14 12:43:25;;;;;;;3.35;2.55;;;30.00;51.70;;;;;;5005564;28;20060;-68
2021/07/14 12:45:56;;;;;;;3.13;2.40;;;30.00;51.20;;;;;;5002277;28;20033;-67
2021/07/14 12:48:24;;;;;;;3.85;2.10;;;30.00;51.50;;;;;;5006098;28;20048;-66
2021/07/14 12:50:51;;;;;;;3.42;2.53;;;30.00;51.90;;;;;;5004762;28;20038;-66
2021/07/14 12:53:18;;;;;;;3.17;2.45;;;30.00;51.80;;;;;;5005886;28;20136;-65
2021/07/14 12:55:46;;;;;;;2.30;2.10;;;30.00;52.10;;;;;;5005369;28;20049;-65
2021/07/14 12:58:15;;;;;;;2.60;2.38;;;30.00;51.50;;;;;;4997604;28;20037;-65
2021/07/14 13:00:42;;;;;;;2.50;2.30;;;30.00;51.50;;;;;;4994505;28;20033;-66